sensor_id;sensor_type;location;lat;lon;timestamp;temperature;humidity
75927;DHT22;64605;48.296;16.416;2023-03-24T00:01:01;15.60;52.40
75927;DHT22;64605;48.296;16.416;2023-03-24T00:03:28;15.60;52.80
75927;DHT22;64605;48.296;16.416;2023-03-24T00:05:59;15.50;53.40
75927;DHT22;64605;48.296;16.416;2023-03-24T00:08:31;15.40;53.90
75927;DHT22;64605;48.296;16.416;2023-03-24T00:11:02;15.30;54.20
75927;DHT22;64605;48.296;16.416;2023-03-24T00:13:29;15.30;54.10
75927;DHT22;64605;48.296;16.416;2023-03-24T00:15:57;15.20;54.30
75927;DHT22;64605;48.296;16.416;2023-03-24T00:18:23;15.10;54.70
75927;DHT22;64605;48.296;16.416;2023-03-24T00:20:53;15.10;54.70
75927;DHT22;64605;48.296;16.416;2023-03-24T00:23:27;15.00;54.80
75927;DHT22;64605;48.296;16.416;2023-03-24T00:26:09;15.00;55.00
75927;DHT22;64605;48.296;16.416;2023-03-24T00:28:36;14.90;55.30
75927;DHT22;64605;48.296;16.416;2023-03-24T00:31:05;14.80;55.60
75927;DHT22;64605;48.296;16.416;2023-03-24T00:33:31;14.80;55.60
75927;DHT22;64605;48.296;16.416;2023-03-24T00:36:00;14.80;55.70
75927;DHT22;64605;48.296;16.416;2023-03-24T00:38:26;14.70;55.80
75927;DHT22;64605;48.296;16.416;2023-03-24T00:40:52;14.70;55.10
75927;DHT22;64605;48.296;16.416;2023-03-24T00:43:18;14.70;55.10
75927;DHT22;64605;48.296;16.416;2023-03-24T00:45:44;14.60;55.50
75927;DHT22;64605;48.296;16.416;2023-03-24T00:48:16;14.60;56.30
75927;DHT22;64605;48.296;16.416;2023-03-24T00:50:46;14.50;56.20
75927;DHT22;64605;48.296;16.416;2023-03-24T00:53:13;14.50;56.30
75927;DHT22;64605;48.296;16.416;2023-03-24T00:55:41;14.50;56.30
75927;DHT22;64605;48.296;16.416;2023-03-24T00:58:06;14.60;55.90
75927;DHT22;64605;48.296;16.416;2023-03-24T01:00:32;14.50;56.60
75927;DHT22;64605;48.296;16.416;2023-03-24T01:02:59;14.50;56.80
75927;DHT22;64605;48.296;16.416;2023-03-24T01:05:29;14.50;58.10
75927;DHT22;64605;48.296;16.416;2023-03-24T01:07:59;14.60;57.20
75927;DHT22;64605;48.296;16.416;2023-03-24T01:10:36;14.60;57.20
75927;DHT22;64605;48.296;16.416;2023-03-24T01:13:15;14.60;57.40
75927;DHT22;64605;48.296;16.416;2023-03-24T01:15:42;14.60;57.30
75927;DHT22;64605;48.296;16.416;2023-03-24T01:18:09;14.60;57.40
75927;DHT22;64605;48.296;16.416;2023-03-24T01:20:37;14.60;57.20
75927;DHT22;64605;48.296;16.416;2023-03-24T01:23:05;14.60;57.50
75927;DHT22;64605;48.296;16.416;2023-03-24T01:25:33;14.60;57.30
75927;DHT22;64605;48.296;16.416;2023-03-24T01:28:00;14.50;57.40
75927;DHT22;64605;48.296;16.416;2023-03-24T01:30:27;14.50;57.40
75927;DHT22;64605;48.296;16.416;2023-03-24T01:32:54;14.50;57.60
75927;DHT22;64605;48.296;16.416;2023-03-24T01:35:21;14.50;57.70
75927;DHT22;64605;48.296;16.416;2023-03-24T01:37:48;14.50;57.40
75927;DHT22;64605;48.296;16.416;2023-03-24T01:40:21;14.60;57.40
75927;DHT22;64605;48.296;16.416;2023-03-24T01:42:47;14.60;57.80
75927;DHT22;64605;48.296;16.416;2023-03-24T01:48:10;14.60;57.80
75927;DHT22;64605;48.296;16.416;2023-03-24T01:50:37;14.60;58.10
75927;DHT22;64605;48.296;16.416;2023-03-24T01:53:04;14.60;57.90
75927;DHT22;64605;48.296;16.416;2023-03-24T01:55:32;14.60;58.00
75927;DHT22;64605;48.296;16.416;2023-03-24T01:57:59;14.60;58.20
75927;DHT22;64605;48.296;16.416;2023-03-24T02:00:26;14.60;57.90
75927;DHT22;64605;48.296;16.416;2023-03-24T02:02:57;14.70;57.90
75927;DHT22;64605;48.296;16.416;2023-03-24T02:05:27;14.70;58.00
75927;DHT22;64605;48.296;16.416;2023-03-24T02:08:17;14.60;57.90
75927;DHT22;64605;48.296;16.416;2023-03-24T02:10:45;14.60;58.00
75927;DHT22;64605;48.296;16.416;2023-03-24T02:13:11;14.60;58.10
75927;DHT22;64605;48.296;16.416;2023-03-24T02:18:56;14.60;58.60
75927;DHT22;64605;48.296;16.416;2023-03-24T02:22:04;14.50;58.70
75927;DHT22;64605;48.296;16.416;2023-03-24T02:39:14;14.50;57.80
75927;DHT22;64605;48.296;16.416;2023-03-24T02:44:20;14.60;57.10
75927;DHT22;64605;48.296;16.416;2023-03-24T02:46:55;14.50;57.30
75927;DHT22;64605;48.296;16.416;2023-03-24T02:52:42;14.50;57.20
75927;DHT22;64605;48.296;16.416;2023-03-24T02:55:22;14.50;57.10
75927;DHT22;64605;48.296;16.416;2023-03-24T03:00:30;14.50;57.30
75927;DHT22;64605;48.296;16.416;2023-03-24T03:03:02;14.50;57.90
75927;DHT22;64605;48.296;16.416;2023-03-24T03:05:36;14.40;58.20
75927;DHT22;64605;48.296;16.416;2023-03-24T03:08:05;14.40;58.00
75927;DHT22;64605;48.296;16.416;2023-03-24T03:10:43;14.40;58.30
75927;DHT22;64605;48.296;16.416;2023-03-24T03:13:24;14.40;58.60
75927;DHT22;64605;48.296;16.416;2023-03-24T03:15:56;14.40;58.50
75927;DHT22;64605;48.296;16.416;2023-03-24T03:18:40;14.40;58.60
75927;DHT22;64605;48.296;16.416;2023-03-24T03:21:12;14.30;58.70
75927;DHT22;64605;48.296;16.416;2023-03-24T03:23:44;14.40;58.70
75927;DHT22;64605;48.296;16.416;2023-03-24T03:26:15;14.30;58.90
75927;DHT22;64605;48.296;16.416;2023-03-24T03:28:45;14.20;59.00
75927;DHT22;64605;48.296;16.416;2023-03-24T03:31:20;14.30;59.10
75927;DHT22;64605;48.296;16.416;2023-03-24T03:39:43;14.30;58.80
75927;DHT22;64605;48.296;16.416;2023-03-24T03:42:11;14.40;58.70
75927;DHT22;64605;48.296;16.416;2023-03-24T03:44:37;14.30;58.80
75927;DHT22;64605;48.296;16.416;2023-03-24T03:47:02;14.30;59.00
75927;DHT22;64605;48.296;16.416;2023-03-24T03:49:28;14.40;59.20
75927;DHT22;64605;48.296;16.416;2023-03-24T03:51:54;14.40;59.40
75927;DHT22;64605;48.296;16.416;2023-03-24T03:54:23;14.40;59.00
75927;DHT22;64605;48.296;16.416;2023-03-24T03:56:50;14.40;58.70
75927;DHT22;64605;48.296;16.416;2023-03-24T03:59:33;14.40;58.00
75927;DHT22;64605;48.296;16.416;2023-03-24T04:15:57;14.40;58.60
75927;DHT22;64605;48.296;16.416;2023-03-24T04:35:05;14.40;58.50
75927;DHT22;64605;48.296;16.416;2023-03-24T04:37:33;14.40;58.90
75927;DHT22;64605;48.296;16.416;2023-03-24T04:40:05;14.40;58.40
75927;DHT22;64605;48.296;16.416;2023-03-24T04:42:59;14.40;58.80
75927;DHT22;64605;48.296;16.416;2023-03-24T04:45:29;14.40;58.50
75927;DHT22;64605;48.296;16.416;2023-03-24T04:48:00;14.40;57.80
75927;DHT22;64605;48.296;16.416;2023-03-24T04:50:36;14.50;57.80
75927;DHT22;64605;48.296;16.416;2023-03-24T04:53:03;14.40;57.80
75927;DHT22;64605;48.296;16.416;2023-03-24T04:58:20;14.40;58.30
75927;DHT22;64605;48.296;16.416;2023-03-24T05:00:47;14.30;58.20
75927;DHT22;64605;48.296;16.416;2023-03-24T05:03:14;14.30;58.40
75927;DHT22;64605;48.296;16.416;2023-03-24T05:05:41;14.20;58.50
75927;DHT22;64605;48.296;16.416;2023-03-24T05:08:07;14.20;58.70
75927;DHT22;64605;48.296;16.416;2023-03-24T05:10:34;14.20;59.00
75927;DHT22;64605;48.296;16.416;2023-03-24T05:13:00;14.30;59.10
75927;DHT22;64605;48.296;16.416;2023-03-24T05:15:26;14.30;59.70
75927;DHT22;64605;48.296;16.416;2023-03-24T05:17:52;14.30;59.50
75927;DHT22;64605;48.296;16.416;2023-03-24T05:20:18;14.30;59.60
75927;DHT22;64605;48.296;16.416;2023-03-24T05:22:44;14.30;59.60
75927;DHT22;64605;48.296;16.416;2023-03-24T05:25:10;14.40;59.50
75927;DHT22;64605;48.296;16.416;2023-03-24T05:27:36;14.50;59.50
75927;DHT22;64605;48.296;16.416;2023-03-24T05:30:04;14.50;59.30
75927;DHT22;64605;48.296;16.416;2023-03-24T05:32:30;14.60;59.50
75927;DHT22;64605;48.296;16.416;2023-03-24T05:34:56;14.60;59.10
75927;DHT22;64605;48.296;16.416;2023-03-24T05:37:22;14.60;59.10
75927;DHT22;64605;48.296;16.416;2023-03-24T05:39:47;14.60;59.30
75927;DHT22;64605;48.296;16.416;2023-03-24T05:42:15;14.60;58.90
75927;DHT22;64605;48.296;16.416;2023-03-24T05:44:41;14.70;59.10
75927;DHT22;64605;48.296;16.416;2023-03-24T05:47:07;14.70;58.70
75927;DHT22;64605;48.296;16.416;2023-03-24T05:49:33;14.80;58.40
75927;DHT22;64605;48.296;16.416;2023-03-24T05:51:59;14.80;56.70
75927;DHT22;64605;48.296;16.416;2023-03-24T05:54:25;14.90;56.40
75927;DHT22;64605;48.296;16.416;2023-03-24T05:56:51;15.10;55.80
75927;DHT22;64605;48.296;16.416;2023-03-24T05:59:17;15.30;55.30
75927;DHT22;64605;48.296;16.416;2023-03-24T06:01:42;15.40;55.20
75927;DHT22;64605;48.296;16.416;2023-03-24T06:04:08;15.50;55.10
75927;DHT22;64605;48.296;16.416;2023-03-24T06:06:34;15.60;55.10
75927;DHT22;64605;48.296;16.416;2023-03-24T06:09:03;15.70;53.90
75927;DHT22;64605;48.296;16.416;2023-03-24T06:11:29;15.70;53.70
75927;DHT22;64605;48.296;16.416;2023-03-24T06:13:55;15.80;53.20
75927;DHT22;64605;48.296;16.416;2023-03-24T06:16:26;15.80;53.10
75927;DHT22;64605;48.296;16.416;2023-03-24T06:18:52;15.80;53.10
75927;DHT22;64605;48.296;16.416;2023-03-24T06:21:19;15.80;53.30
75927;DHT22;64605;48.296;16.416;2023-03-24T06:23:45;15.80;53.20
75927;DHT22;64605;48.296;16.416;2023-03-24T06:26:12;16.00;52.90
75927;DHT22;64605;48.296;16.416;2023-03-24T06:28:39;16.10;51.90
75927;DHT22;64605;48.296;16.416;2023-03-24T06:31:07;16.10;51.80
75927;DHT22;64605;48.296;16.416;2023-03-24T06:33:40;16.30;51.90
75927;DHT22;64605;48.296;16.416;2023-03-24T06:36:07;16.30;52.10
75927;DHT22;64605;48.296;16.416;2023-03-24T06:38:33;16.40;52.20
75927;DHT22;64605;48.296;16.416;2023-03-24T06:41:00;16.50;52.10
75927;DHT22;64605;48.296;16.416;2023-03-24T06:43:25;16.60;51.70
75927;DHT22;64605;48.296;16.416;2023-03-24T06:45:51;16.70;51.90
75927;DHT22;64605;48.296;16.416;2023-03-24T06:48:17;16.90;51.90
75927;DHT22;64605;48.296;16.416;2023-03-24T06:50:42;16.90;51.70
75927;DHT22;64605;48.296;16.416;2023-03-24T06:53:08;17.00;50.20
75927;DHT22;64605;48.296;16.416;2023-03-24T06:55:33;17.10;50.10
75927;DHT22;64605;48.296;16.416;2023-03-24T06:57:59;17.10;49.40
75927;DHT22;64605;48.296;16.416;2023-03-24T07:00:25;17.20;49.50
75927;DHT22;64605;48.296;16.416;2023-03-24T07:02:53;17.30;49.80
75927;DHT22;64605;48.296;16.416;2023-03-24T07:05:20;17.50;49.70
75927;DHT22;64605;48.296;16.416;2023-03-24T07:07:46;17.70;49.40
75927;DHT22;64605;48.296;16.416;2023-03-24T07:10:12;17.70;48.50
75927;DHT22;64605;48.296;16.416;2023-03-24T07:12:39;17.90;48.20
75927;DHT22;64605;48.296;16.416;2023-03-24T07:15:05;18.00;47.80
75927;DHT22;64605;48.296;16.416;2023-03-24T07:17:31;18.10;47.70
75927;DHT22;64605;48.296;16.416;2023-03-24T07:19:57;18.30;48.00
75927;DHT22;64605;48.296;16.416;2023-03-24T07:22:23;18.40;47.50
75927;DHT22;64605;48.296;16.416;2023-03-24T07:24:49;18.50;46.50
75927;DHT22;64605;48.296;16.416;2023-03-24T07:27:14;18.50;46.30
75927;DHT22;64605;48.296;16.416;2023-03-24T07:29:40;18.50;46.10
75927;DHT22;64605;48.296;16.416;2023-03-24T07:32:05;18.70;46.50
75927;DHT22;64605;48.296;16.416;2023-03-24T07:34:32;18.90;46.80
75927;DHT22;64605;48.296;16.416;2023-03-24T07:36:59;19.20;46.90
75927;DHT22;64605;48.296;16.416;2023-03-24T07:39:24;19.80;46.20
75927;DHT22;64605;48.296;16.416;2023-03-24T07:41:50;20.30;44.80
75927;DHT22;64605;48.296;16.416;2023-03-24T07:44:16;21.10;42.90
75927;DHT22;64605;48.296;16.416;2023-03-24T07:46:42;21.60;41.80
75927;DHT22;64605;48.296;16.416;2023-03-24T07:49:07;21.80;40.30
75927;DHT22;64605;48.296;16.416;2023-03-24T07:51:33;21.70;39.10
75927;DHT22;64605;48.296;16.416;2023-03-24T07:53:58;21.60;39.30
75927;DHT22;64605;48.296;16.416;2023-03-24T07:56:24;21.50;39.10
75927;DHT22;64605;48.296;16.416;2023-03-24T07:58:50;21.20;39.60
75927;DHT22;64605;48.296;16.416;2023-03-24T08:01:15;21.20;39.70
75927;DHT22;64605;48.296;16.416;2023-03-24T08:03:41;21.10;39.50
75927;DHT22;64605;48.296;16.416;2023-03-24T08:06:07;21.10;39.50
75927;DHT22;64605;48.296;16.416;2023-03-24T08:08:34;21.10;39.70
75927;DHT22;64605;48.296;16.416;2023-03-24T08:11:02;21.00;39.00
75927;DHT22;64605;48.296;16.416;2023-03-24T08:13:27;20.90;39.30
75927;DHT22;64605;48.296;16.416;2023-03-24T08:15:53;20.70;39.10
75927;DHT22;64605;48.296;16.416;2023-03-24T08:18:23;20.60;39.30
75927;DHT22;64605;48.296;16.416;2023-03-24T08:20:53;20.50;39.30
75927;DHT22;64605;48.296;16.416;2023-03-24T08:23:19;20.50;39.40
75927;DHT22;64605;48.296;16.416;2023-03-24T08:25:44;20.40;39.90
75927;DHT22;64605;48.296;16.416;2023-03-24T08:28:11;20.40;39.90
75927;DHT22;64605;48.296;16.416;2023-03-24T08:30:37;20.40;39.90
75927;DHT22;64605;48.296;16.416;2023-03-24T08:33:04;20.30;39.90
75927;DHT22;64605;48.296;16.416;2023-03-24T08:35:32;20.40;39.70
75927;DHT22;64605;48.296;16.416;2023-03-24T08:37:59;20.50;39.50
75927;DHT22;64605;48.296;16.416;2023-03-24T08:40:26;20.50;39.40
75927;DHT22;64605;48.296;16.416;2023-03-24T08:42:58;20.70;39.70
75927;DHT22;64605;48.296;16.416;2023-03-24T08:45:27;20.90;39.30
75927;DHT22;64605;48.296;16.416;2023-03-24T08:47:55;20.90;38.60
75927;DHT22;64605;48.296;16.416;2023-03-24T08:50:24;21.00;38.70
75927;DHT22;64605;48.296;16.416;2023-03-24T08:52:53;21.50;38.50
75927;DHT22;64605;48.296;16.416;2023-03-24T08:55:19;21.80;37.00
75927;DHT22;64605;48.296;16.416;2023-03-24T08:57:45;22.10;36.40
75927;DHT22;64605;48.296;16.416;2023-03-24T09:00:11;22.40;36.30
75927;DHT22;64605;48.296;16.416;2023-03-24T09:02:44;22.90;36.00
75927;DHT22;64605;48.296;16.416;2023-03-24T09:05:11;23.60;33.80
75927;DHT22;64605;48.296;16.416;2023-03-24T09:07:37;24.00;32.70
75927;DHT22;64605;48.296;16.416;2023-03-24T09:10:04;24.40;32.90
75927;DHT22;64605;48.296;16.416;2023-03-24T09:12:30;24.70;31.30
75927;DHT22;64605;48.296;16.416;2023-03-24T09:14:56;24.70;31.30
75927;DHT22;64605;48.296;16.416;2023-03-24T09:17:21;24.70;30.00
75927;DHT22;64605;48.296;16.416;2023-03-24T09:19:47;24.70;30.90
75927;DHT22;64605;48.296;16.416;2023-03-24T09:22:12;24.70;29.60
75927;DHT22;64605;48.296;16.416;2023-03-24T09:24:38;24.50;29.90
75927;DHT22;64605;48.296;16.416;2023-03-24T09:27:04;24.60;29.70
75927;DHT22;64605;48.296;16.416;2023-03-24T09:29:30;25.00;29.70
75927;DHT22;64605;48.296;16.416;2023-03-24T09:31:56;25.50;29.10
75927;DHT22;64605;48.296;16.416;2023-03-24T09:34:23;25.80;29.40
75927;DHT22;64605;48.296;16.416;2023-03-24T09:36:48;26.20;28.80
75927;DHT22;64605;48.296;16.416;2023-03-24T09:39:14;26.40;28.80
75927;DHT22;64605;48.296;16.416;2023-03-24T09:41:42;26.50;28.60
75927;DHT22;64605;48.296;16.416;2023-03-24T09:44:39;26.50;27.80
75927;DHT22;64605;48.296;16.416;2023-03-24T09:47:20;26.70;27.70
75927;DHT22;64605;48.296;16.416;2023-03-24T09:49:48;26.20;27.30
75927;DHT22;64605;48.296;16.416;2023-03-24T09:52:23;26.30;27.70
75927;DHT22;64605;48.296;16.416;2023-03-24T09:54:54;26.40;27.70
75927;DHT22;64605;48.296;16.416;2023-03-24T09:57:35;26.40;27.30
75927;DHT22;64605;48.296;16.416;2023-03-24T10:00:21;26.30;27.40
75927;DHT22;64605;48.296;16.416;2023-03-24T10:02:49;26.10;27.20
75927;DHT22;64605;48.296;16.416;2023-03-24T10:05:28;26.10;27.30
75927;DHT22;64605;48.296;16.416;2023-03-24T10:08:34;26.00;27.60
75927;DHT22;64605;48.296;16.416;2023-03-24T10:13:43;25.80;27.50
75927;DHT22;64605;48.296;16.416;2023-03-24T10:21:34;26.10;27.10
75927;DHT22;64605;48.296;16.416;2023-03-24T10:24:31;26.10;27.00
75927;DHT22;64605;48.296;16.416;2023-03-24T10:29:54;26.10;27.40
75927;DHT22;64605;48.296;16.416;2023-03-24T10:32:26;26.30;26.40
75927;DHT22;64605;48.296;16.416;2023-03-24T10:34:57;26.20;26.60
75927;DHT22;64605;48.296;16.416;2023-03-24T10:37:25;26.20;26.90
75927;DHT22;64605;48.296;16.416;2023-03-24T10:39:51;26.00;27.10
75927;DHT22;64605;48.296;16.416;2023-03-24T10:42:23;26.00;27.20
75927;DHT22;64605;48.296;16.416;2023-03-24T10:44:50;26.20;26.90
75927;DHT22;64605;48.296;16.416;2023-03-24T10:47:21;26.10;26.50
75927;DHT22;64605;48.296;16.416;2023-03-24T10:50:08;26.00;26.80
75927;DHT22;64605;48.296;16.416;2023-03-24T10:52:39;26.10;26.80
75927;DHT22;64605;48.296;16.416;2023-03-24T10:55:05;26.00;26.70
75927;DHT22;64605;48.296;16.416;2023-03-24T10:57:31;25.90;26.50
75927;DHT22;64605;48.296;16.416;2023-03-24T11:00:06;25.80;27.10
75927;DHT22;64605;48.296;16.416;2023-03-24T11:02:43;25.80;27.40
75927;DHT22;64605;48.296;16.416;2023-03-24T11:05:17;25.80;27.40
75927;DHT22;64605;48.296;16.416;2023-03-24T11:07:46;25.80;27.20
75927;DHT22;64605;48.296;16.416;2023-03-24T11:10:15;26.00;27.60
75927;DHT22;64605;48.296;16.416;2023-03-24T11:13:01;26.20;27.30
75927;DHT22;64605;48.296;16.416;2023-03-24T11:15:31;26.20;26.50
75927;DHT22;64605;48.296;16.416;2023-03-24T11:20:33;25.90;27.10
75927;DHT22;64605;48.296;16.416;2023-03-24T11:23:03;25.70;27.20
75927;DHT22;64605;48.296;16.416;2023-03-24T11:25:33;25.60;27.30
75927;DHT22;64605;48.296;16.416;2023-03-24T11:28:14;25.80;27.80
75927;DHT22;64605;48.296;16.416;2023-03-24T11:30:46;26.00;27.10
75927;DHT22;64605;48.296;16.416;2023-03-24T11:35:50;26.30;26.90
75927;DHT22;64605;48.296;16.416;2023-03-24T11:38:28;26.20;26.70
75927;DHT22;64605;48.296;16.416;2023-03-24T11:40:59;26.20;28.00
75927;DHT22;64605;48.296;16.416;2023-03-24T11:43:26;26.20;27.10
75927;DHT22;64605;48.296;16.416;2023-03-24T11:46:15;26.30;27.40
75927;DHT22;64605;48.296;16.416;2023-03-24T11:48:50;26.20;26.80
75927;DHT22;64605;48.296;16.416;2023-03-24T11:51:34;26.20;27.20
75927;DHT22;64605;48.296;16.416;2023-03-24T11:54:01;26.10;26.80
75927;DHT22;64605;48.296;16.416;2023-03-24T11:59:40;25.70;27.50
75927;DHT22;64605;48.296;16.416;2023-03-24T12:02:40;25.60;28.00
75927;DHT22;64605;48.296;16.416;2023-03-24T12:05:12;25.70;28.40
75927;DHT22;64605;48.296;16.416;2023-03-24T12:26:07;26.10;27.10
75927;DHT22;64605;48.296;16.416;2023-03-24T12:29:05;26.10;27.50
75927;DHT22;64605;48.296;16.416;2023-03-24T12:42:14;26.10;27.60
75927;DHT22;64605;48.296;16.416;2023-03-24T13:00:36;26.20;27.50
75927;DHT22;64605;48.296;16.416;2023-03-24T13:03:13;26.30;27.30
75927;DHT22;64605;48.296;16.416;2023-03-24T13:05:50;26.30;27.20
75927;DHT22;64605;48.296;16.416;2023-03-24T13:08:21;26.30;27.70
75927;DHT22;64605;48.296;16.416;2023-03-24T13:10:49;26.20;28.10
75927;DHT22;64605;48.296;16.416;2023-03-24T13:13:23;26.30;28.30
75927;DHT22;64605;48.296;16.416;2023-03-24T13:16:00;26.30;27.60
75927;DHT22;64605;48.296;16.416;2023-03-24T13:26:38;26.00;27.70
75927;DHT22;64605;48.296;16.416;2023-03-24T13:31:56;25.80;28.80
75927;DHT22;64605;48.296;16.416;2023-03-24T13:34:39;25.80;27.90
75927;DHT22;64605;48.296;16.416;2023-03-24T13:37:13;25.80;28.50
75927;DHT22;64605;48.296;16.416;2023-03-24T13:39:42;25.70;28.40
75927;DHT22;64605;48.296;16.416;2023-03-24T13:42:33;25.80;28.50
75927;DHT22;64605;48.296;16.416;2023-03-24T13:45:01;25.80;28.70
75927;DHT22;64605;48.296;16.416;2023-03-24T13:47:47;25.80;28.90
75927;DHT22;64605;48.296;16.416;2023-03-24T13:50:15;25.90;28.90
75927;DHT22;64605;48.296;16.416;2023-03-24T13:52:47;25.90;28.90
75927;DHT22;64605;48.296;16.416;2023-03-24T13:55:25;25.90;28.70
75927;DHT22;64605;48.296;16.416;2023-03-24T13:58:07;25.80;28.40
75927;DHT22;64605;48.296;16.416;2023-03-24T14:03:43;25.80;28.80
75927;DHT22;64605;48.296;16.416;2023-03-24T14:09:55;25.60;29.00
75927;DHT22;64605;48.296;16.416;2023-03-24T14:12:21;25.70;28.80
75927;DHT22;64605;48.296;16.416;2023-03-24T14:15:16;25.70;28.30
75927;DHT22;64605;48.296;16.416;2023-03-24T14:17:45;25.40;28.30
75927;DHT22;64605;48.296;16.416;2023-03-24T14:20:22;25.30;29.00
75927;DHT22;64605;48.296;16.416;2023-03-24T14:22:50;25.30;28.80
75927;DHT22;64605;48.296;16.416;2023-03-24T14:25:24;25.20;28.80
75927;DHT22;64605;48.296;16.416;2023-03-24T14:27:53;25.10;29.20
75927;DHT22;64605;48.296;16.416;2023-03-24T14:30:25;25.00;29.00
75927;DHT22;64605;48.296;16.416;2023-03-24T14:32:56;25.00;29.00
75927;DHT22;64605;48.296;16.416;2023-03-24T14:37:59;24.80;30.50
75927;DHT22;64605;48.296;16.416;2023-03-24T14:40:49;24.70;30.40
75927;DHT22;64605;48.296;16.416;2023-03-24T14:43:28;24.70;30.60
75927;DHT22;64605;48.296;16.416;2023-03-24T14:46:03;24.60;31.20
75927;DHT22;64605;48.296;16.416;2023-03-24T14:48:43;24.50;32.00
75927;DHT22;64605;48.296;16.416;2023-03-24T14:51:34;24.40;33.00
75927;DHT22;64605;48.296;16.416;2023-03-24T14:54:10;24.20;32.90
75927;DHT22;64605;48.296;16.416;2023-03-24T14:56:39;24.20;33.50
75927;DHT22;64605;48.296;16.416;2023-03-24T15:02:19;24.00;33.40
75927;DHT22;64605;48.296;16.416;2023-03-24T15:07:39;23.70;34.60
75927;DHT22;64605;48.296;16.416;2023-03-24T15:10:05;23.60;34.40
75927;DHT22;64605;48.296;16.416;2023-03-24T15:12:31;23.30;34.70
75927;DHT22;64605;48.296;16.416;2023-03-24T15:14:57;23.10;35.50
75927;DHT22;64605;48.296;16.416;2023-03-24T15:17:24;22.90;35.70
75927;DHT22;64605;48.296;16.416;2023-03-24T15:19:52;22.80;36.00
75927;DHT22;64605;48.296;16.416;2023-03-24T15:22:19;22.80;36.60
75927;DHT22;64605;48.296;16.416;2023-03-24T15:24:47;22.70;36.50
75927;DHT22;64605;48.296;16.416;2023-03-24T15:29:41;22.50;37.80
75927;DHT22;64605;48.296;16.416;2023-03-24T15:32:16;22.40;38.30
75927;DHT22;64605;48.296;16.416;2023-03-24T15:34:47;22.30;38.60
75927;DHT22;64605;48.296;16.416;2023-03-24T15:37:21;22.20;38.70
75927;DHT22;64605;48.296;16.416;2023-03-24T15:39:50;22.10;39.70
75927;DHT22;64605;48.296;16.416;2023-03-24T15:42:20;22.10;39.50
75927;DHT22;64605;48.296;16.416;2023-03-24T15:44:46;22.00;40.70
75927;DHT22;64605;48.296;16.416;2023-03-24T15:47:24;21.80;41.70
75927;DHT22;64605;48.296;16.416;2023-03-24T15:50:01;21.60;43.20
75927;DHT22;64605;48.296;16.416;2023-03-24T15:54:59;21.10;45.00
75927;DHT22;64605;48.296;16.416;2023-03-24T15:57:25;20.90;45.60
75927;DHT22;64605;48.296;16.416;2023-03-24T16:00:04;20.80;45.50
75927;DHT22;64605;48.296;16.416;2023-03-24T16:02:47;20.70;45.70
75927;DHT22;64605;48.296;16.416;2023-03-24T16:05:26;20.50;46.40
75927;DHT22;64605;48.296;16.416;2023-03-24T16:08:04;20.40;46.80
75927;DHT22;64605;48.296;16.416;2023-03-24T16:10:32;20.30;46.80
75927;DHT22;64605;48.296;16.416;2023-03-24T16:13:19;20.10;47.60
75927;DHT22;64605;48.296;16.416;2023-03-24T16:16:00;20.00;48.00
75927;DHT22;64605;48.296;16.416;2023-03-24T16:18:32;20.00;48.00
75927;DHT22;64605;48.296;16.416;2023-03-24T16:20:59;19.90;48.30
75927;DHT22;64605;48.296;16.416;2023-03-24T16:23:25;19.80;48.20
75927;DHT22;64605;48.296;16.416;2023-03-24T16:25:50;19.50;49.50
75927;DHT22;64605;48.296;16.416;2023-03-24T16:28:18;19.50;49.60
75927;DHT22;64605;48.296;16.416;2023-03-24T16:30:48;19.50;50.20
75927;DHT22;64605;48.296;16.416;2023-03-24T16:33:16;19.40;50.70
75927;DHT22;64605;48.296;16.416;2023-03-24T16:35:42;19.30;51.10
75927;DHT22;64605;48.296;16.416;2023-03-24T16:38:11;19.30;51.50
75927;DHT22;64605;48.296;16.416;2023-03-24T16:40:40;19.20;52.40
75927;DHT22;64605;48.296;16.416;2023-03-24T16:43:07;19.20;53.70
75927;DHT22;64605;48.296;16.416;2023-03-24T16:45:33;19.10;54.90
75927;DHT22;64605;48.296;16.416;2023-03-24T16:48:00;19.00;56.40
75927;DHT22;64605;48.296;16.416;2023-03-24T16:50:35;18.90;56.70
75927;DHT22;64605;48.296;16.416;2023-03-24T16:53:02;18.80;58.00
75927;DHT22;64605;48.296;16.416;2023-03-24T16:55:32;18.60;58.00
75927;DHT22;64605;48.296;16.416;2023-03-24T16:57:58;18.50;58.90
75927;DHT22;64605;48.296;16.416;2023-03-24T17:00:23;18.50;59.10
75927;DHT22;64605;48.296;16.416;2023-03-24T17:02:50;18.50;59.50
75927;DHT22;64605;48.296;16.416;2023-03-24T17:05:29;18.40;60.60
75927;DHT22;64605;48.296;16.416;2023-03-24T17:07:56;18.40;60.30
75927;DHT22;64605;48.296;16.416;2023-03-24T17:10:23;18.40;59.90
75927;DHT22;64605;48.296;16.416;2023-03-24T17:12:51;18.30;58.80
75927;DHT22;64605;48.296;16.416;2023-03-24T17:15:23;18.30;59.30
75927;DHT22;64605;48.296;16.416;2023-03-24T17:17:50;18.20;60.80
75927;DHT22;64605;48.296;16.416;2023-03-24T17:20:17;18.00;61.40
75927;DHT22;64605;48.296;16.416;2023-03-24T17:22:44;18.00;61.20
75927;DHT22;64605;48.296;16.416;2023-03-24T17:25:16;17.90;61.40
75927;DHT22;64605;48.296;16.416;2023-03-24T17:27:42;17.90;62.30
75927;DHT22;64605;48.296;16.416;2023-03-24T17:30:14;17.80;62.50
75927;DHT22;64605;48.296;16.416;2023-03-24T17:32:40;17.80;62.50
75927;DHT22;64605;48.296;16.416;2023-03-24T17:35:09;17.80;62.70
75927;DHT22;64605;48.296;16.416;2023-03-24T17:37:35;17.80;61.90
75927;DHT22;64605;48.296;16.416;2023-03-24T17:40:02;17.90;62.20
75927;DHT22;64605;48.296;16.416;2023-03-24T17:42:32;17.80;62.60
75927;DHT22;64605;48.296;16.416;2023-03-24T17:44:57;17.80;63.20
75927;DHT22;64605;48.296;16.416;2023-03-24T17:47:23;17.80;63.30
75927;DHT22;64605;48.296;16.416;2023-03-24T17:49:49;17.80;63.10
75927;DHT22;64605;48.296;16.416;2023-03-24T17:52:14;17.70;63.40
75927;DHT22;64605;48.296;16.416;2023-03-24T17:54:40;17.70;64.00
75927;DHT22;64605;48.296;16.416;2023-03-24T17:57:06;17.70;64.10
75927;DHT22;64605;48.296;16.416;2023-03-24T17:59:32;17.70;64.20
75927;DHT22;64605;48.296;16.416;2023-03-24T18:01:58;17.70;64.00
75927;DHT22;64605;48.296;16.416;2023-03-24T18:04:24;17.70;63.10
75927;DHT22;64605;48.296;16.416;2023-03-24T18:06:49;17.70;63.70
75927;DHT22;64605;48.296;16.416;2023-03-24T18:09:15;17.60;64.20
75927;DHT22;64605;48.296;16.416;2023-03-24T18:11:42;17.50;64.50
75927;DHT22;64605;48.296;16.416;2023-03-24T18:14:08;17.50;64.70
75927;DHT22;64605;48.296;16.416;2023-03-24T18:16:34;17.50;65.00